Time;durP1;ratioP1;P1;durP2;ratioP2;P2;SDS_P1;SDS_P2;PMS_P1;PMS_P2;Temp;Humidity;BMP_temperature;BMP_pressure;BME280_temperature;BME280_humidity;BME280_pressure;Samples;Min_cycle;Max_cycle;Signal;HPM_P1;HPM_P2
2022/04/11 00:00:43;;;;;;;6.63;3.33;;;23.60;74.10;;;;;;5053382;28;20183;-77
2022/04/11 00:03:10;;;;;;;6.43;2.90;;;23.70;73.70;;;;;;5051044;28;20258;-76
2022/04/11 00:05:38;;;;;;;8.93;3.93;;;23.70;72.20;;;;;;5053415;28;20246;-75
2022/04/11 00:08:05;;;;;;;9.47;4.00;;;23.80;73.30;;;;;;5052917;28;20575;-72
2022/04/11 00:10:33;;;;;;;9.63;3.80;;;23.80;73.00;;;;;;5055335;28;20184;-77
2022/04/11 00:13:04;;;;;;;7.37;3.27;;;24.00;73.00;;;;;;5069501;28;20188;-78
2022/04/11 00:15:33;;;;;;;3.93;2.27;;;24.20;70.90;;;;;;5052585;28;20191;-75
2022/04/11 00:18:03;;;;;;;4.60;2.40;;;24.30;69.20;;;;;;5035262;28;20169;-75
2022/04/11 00:20:31;;;;;;;4.10;2.00;;;24.50;68.30;;;;;;5033361;28;20171;-79
2022/04/11 00:22:58;;;;;;;2.83;1.70;;;24.50;68.50;;;;;;5044037;28;20180;-78
2022/04/11 00:25:26;;;;;;;2.67;1.83;;;24.60;67.00;;;;;;5054975;28;20207;-74
2022/04/11 00:27:53;;;;;;;5.30;2.03;;;24.70;66.60;;;;;;5052311;28;20195;-72
2022/04/11 00:30:21;;;;;;;3.93;2.00;;;24.80;65.60;;;;;;5050816;28;20310;-78
2022/04/11 00:32:48;;;;;;;10.10;2.20;;;24.70;66.20;;;;;;5051569;28;20294;-75
2022/04/11 00:35:16;;;;;;;3.63;1.87;;;24.70;65.80;;;;;;5052407;28;20266;-72
2022/04/11 00:37:43;;;;;;;6.80;1.40;;;24.90;66.00;;;;;;5052049;28;20184;-76
2022/04/11 00:40:11;;;;;;;4.03;1.93;;;25.10;63.60;;;;;;5052447;28;20172;-76
2022/04/11 00:42:39;;;;;;;5.37;1.60;;;25.00;64.10;;;;;;5051897;28;20263;-78
2022/04/11 00:45:07;;;;;;;3.60;1.40;;;25.20;64.90;;;;;;5050620;28;20544;-76
2022/04/11 00:47:35;;;;;;;3.67;1.50;;;25.20;64.60;;;;;;5051780;28;20180;-81
2022/04/11 00:50:08;;;;;;;4.03;1.87;;;25.30;62.70;;;;;;5052403;28;20227;-76
2022/04/11 00:52:38;;;;;;;10.87;2.20;;;25.50;64.10;;;;;;5052529;28;20550;-75
2022/04/11 00:55:10;;;;;;;6.70;2.10;;;25.40;64.80;;;;;;5051874;28;20187;-80
2022/04/11 00:57:39;;;;;;;2.27;1.50;;;25.50;64.50;;;;;;5051958;28;20184;-73
2022/04/11 01:00:08;;;;;;;5.60;1.93;;;25.60;63.30;;;;;;5049742;28;20662;-73
2022/04/11 01:02:36;;;;;;;4.10;2.50;;;25.70;64.30;;;;;;5055535;28;20646;-72
2022/04/11 01:05:07;;;;;;;5.60;2.00;;;25.80;64.60;;;;;;5045871;28;20188;-73
2022/04/11 01:07:36;;;;;;;6.27;2.20;;;25.80;63.70;;;;;;5051933;28;20176;-77
2022/04/11 01:10:06;;;;;;;2.07;1.70;;;25.80;62.80;;;;;;5048442;28;20192;-73
2022/04/11 01:12:34;;;;;;;5.63;1.40;;;25.80;62.80;;;;;;5038221;28;20180;-74
2022/04/11 01:15:01;;;;;;;4.97;1.60;;;25.80;61.30;;;;;;5049963;28;20184;-77
2022/04/11 01:17:36;;;;;;;2.00;1.20;;;25.90;60.70;;;;;;5045564;28;20183;-73
2022/04/11 01:20:08;;;;;;;3.27;1.77;;;26.00;59.80;;;;;;5051837;28;20229;-74
2022/04/11 01:22:35;;;;;;;7.27;1.70;;;26.20;60.80;;;;;;5051678;28;20180;-74
2022/04/11 01:25:04;;;;;;;5.27;1.83;;;26.40;60.90;;;;;;5048528;28;20274;-75
2022/04/11 01:27:35;;;;;;;3.00;2.00;;;26.60;60.10;;;;;;5047933;28;20180;-74
2022/04/11 01:30:02;;;;;;;3.03;1.80;;;26.60;58.70;;;;;;5048156;28;20611;-74
2022/04/11 01:32:30;;;;;;;2.33;1.20;;;26.50;59.70;;;;;;5051115;28;20184;-74
2022/04/11 01:35:00;;;;;;;4.30;1.20;;;26.70;56.50;;;;;;5044341;28;20615;-80
2022/04/11 01:37:28;;;;;;;1.30;0.93;;;26.80;56.50;;;;;;5045341;28;20621;-80
2022/04/11 01:39:55;;;;;;;4.97;1.17;;;26.80;55.90;;;;;;5051294;28;20184;-82
2022/04/11 01:42:23;;;;;;;1.50;1.00;;;26.80;55.40;;;;;;5052995;28;20284;-81
2022/04/11 01:44:50;;;;;;;1.10;0.80;;;27.00;55.30;;;;;;5051809;28;20188;-78
2022/04/11 01:47:17;;;;;;;7.90;2.97;;;27.00;54.30;;;;;;5082698;28;20670;-76
2022/04/11 01:49:45;;;;;;;2.93;1.10;;;27.20;55.30;;;;;;5050653;28;20220;-80
2022/04/11 01:52:13;;;;;;;2.53;1.00;;;27.50;54.20;;;;;;5047053;28;20173;-81
2022/04/11 01:54:40;;;;;;;2.40;0.97;;;27.60;53.60;;;;;;5046281;28;20195;-82
2022/04/11 01:57:08;;;;;;;1.50;1.10;;;27.60;53.90;;;;;;5051654;28;20519;-77
2022/04/11 01:59:35;;;;;;;1.60;0.93;;;27.60;53.30;;;;;;5045389;28;20188;-79
2022/04/11 02:02:02;;;;;;;2.00;0.90;;;27.80;53.80;;;;;;5058126;28;20270;-84
2022/04/11 02:04:31;;;;;;;3.20;1.10;;;27.90;52.80;;;;;;5062693;28;20176;-79
2022/04/11 02:06:59;;;;;;;3.23;1.10;;;27.90;53.00;;;;;;5054615;28;20184;-78
2022/04/11 02:09:27;;;;;;;4.67;1.40;;;28.10;53.00;;;;;;5085523;28;20231;-82
2022/04/11 02:11:54;;;;;;;1.30;0.90;;;28.30;52.00;;;;;;5053321;28;20197;-81
2022/04/11 02:14:21;;;;;;;3.07;0.97;;;28.30;51.80;;;;;;5087729;28;20196;-80
2022/04/11 02:16:49;;;;;;;2.77;1.00;;;28.50;50.80;;;;;;5051997;28;20187;-79
2022/04/11 02:19:16;;;;;;;2.23;1.10;;;28.50;49.00;;;;;;5050180;28;20184;-80
2022/04/11 02:21:44;;;;;;;2.90;1.03;;;28.30;49.30;;;;;;5048625;28;20168;-80
2022/04/11 02:24:11;;;;;;;3.20;0.80;;;28.60;48.80;;;;;;5041430;28;20242;-78
2022/04/11 02:26:38;;;;;;;6.10;0.90;;;28.50;47.70;;;;;;5055000;28;20674;-80
2022/04/11 02:29:06;;;;;;;1.90;0.80;;;28.90;47.80;;;;;;5054490;28;20669;-81
2022/04/11 02:31:33;;;;;;;1.50;0.80;;;29.20;47.30;;;;;;5054991;28;20183;-80
2022/04/11 02:34:00;;;;;;;2.30;0.70;;;29.00;46.00;;;;;;5060044;28;20207;-78
2022/04/11 02:36:28;;;;;;;2.03;0.77;;;29.10;45.00;;;;;;5054827;28;20255;-80
2022/04/11 02:38:55;;;;;;;1.57;0.87;;;29.20;45.70;;;;;;5054603;28;20180;-78
2022/04/11 02:41:22;;;;;;;1.57;0.60;;;29.60;44.80;;;;;;5054737;28;20226;-81
2022/04/11 02:43:50;;;;;;;1.17;0.63;;;29.80;44.60;;;;;;5055639;28;20214;-80
2022/04/11 02:46:17;;;;;;;1.67;0.90;;;29.90;43.30;;;;;;5054560;28;20180;-81
2022/04/11 02:48:44;;;;;;;3.03;0.70;;;29.70;42.50;;;;;;5053849;28;20216;-78
2022/04/11 02:51:12;;;;;;;1.30;0.80;;;29.40;41.80;;;;;;5054666;28;20191;-77
2022/04/11 02:53:39;;;;;;;0.80;0.73;;;29.80;40.70;;;;;;5054306;28;20236;-78
2022/04/11 02:56:06;;;;;;;1.80;0.70;;;30.00;40.50;;;;;;5054333;28;20211;-79
2022/04/11 02:58:34;;;;;;;1.47;0.70;;;30.10;40.80;;;;;;5054771;28;20183;-79
2022/04/11 03:01:01;;;;;;;1.23;0.67;;;30.30;40.00;;;;;;5054634;28;20176;-82
2022/04/11 03:03:28;;;;;;;3.40;0.80;;;30.00;40.10;;;;;;5065725;28;20211;-78
2022/04/11 03:05:56;;;;;;;3.40;0.82;;;30.50;40.70;;;;;;5045778;28;20267;-81
2022/04/11 03:08:23;;;;;;;0.60;0.52;;;30.70;39.40;;;;;;5047040;28;20212;-80
2022/04/11 03:10:50;;;;;;;1.17;0.70;;;30.70;39.50;;;;;;5052389;28;20179;-77
2022/04/11 03:13:18;;;;;;;0.60;0.60;;;30.80;39.70;;;;;;5054075;28;20180;-78
2022/04/11 03:15:45;;;;;;;2.17;0.77;;;31.20;39.40;;;;;;5054059;28;20614;-81
2022/04/11 03:18:12;;;;;;;1.30;0.80;;;31.00;39.00;;;;;;5054217;28;20187;-76
2022/04/11 03:20:39;;;;;;;3.80;0.70;;;31.00;40.20;;;;;;5054109;28;20172;-79
2022/04/11 03:23:07;;;;;;;2.15;0.70;;;31.00;40.00;;;;;;5054385;28;20187;-81
2022/04/11 03:25:36;;;;;;;1.80;0.80;;;30.80;39.40;;;;;;5053824;28;20230;-80
2022/04/11 03:28:04;;;;;;;2.30;0.60;;;30.40;39.70;;;;;;5085696;28;20590;-75
2022/04/11 03:30:31;;;;;;;1.10;0.73;;;30.80;40.00;;;;;;5054112;28;20187;-82
2022/04/11 03:32:58;;;;;;;1.42;0.60;;;30.90;40.30;;;;;;5056677;28;20187;-78
2022/04/11 03:35:25;;;;;;;1.38;0.70;;;31.60;39.00;;;;;;5053769;28;20552;-81
2022/04/11 03:37:53;;;;;;;2.30;0.50;;;32.00;38.20;;;;;;5051805;28;20187;-79
2022/04/11 03:40:20;;;;;;;1.38;0.80;;;31.90;38.10;;;;;;5048531;28;20214;-78
2022/04/11 03:42:50;;;;;;;0.57;0.50;;;31.90;37.20;;;;;;5052560;28;20230;-80
2022/04/11 03:45:18;;;;;;;1.10;0.50;;;32.10;37.30;;;;;;5049695;28;20179;-79
2022/04/11 03:47:45;;;;;;;1.45;0.77;;;32.00;37.50;;;;;;5052443;28;20172;-80
2022/04/11 03:50:13;;;;;;;1.73;1.05;;;31.90;36.70;;;;;;5053064;28;20281;-80
2022/04/11 03:52:40;;;;;;;1.30;0.60;;;31.60;38.80;;;;;;5052007;28;20287;-82
2022/04/11 03:55:08;;;;;;;1.43;0.77;;;30.40;38.60;;;;;;5053077;28;20180;-79
2022/04/11 03:57:36;;;;;;;3.22;0.70;;;29.30;42.60;;;;;;5053278;28;20172;-79
2022/04/11 04:00:04;;;;;;;1.95;0.70;;;28.90;43.70;;;;;;5052672;28;20184;-76
2022/04/11 04:02:31;;;;;;;1.70;0.90;;;29.40;44.80;;;;;;5053954;28;20168;-77
2022/04/11 04:04:59;;;;;;;5.68;0.93;;;30.70;43.50;;;;;;5053316;28;20719;-75
2022/04/11 04:07:26;;;;;;;2.20;0.77;;;31.50;41.10;;;;;;5052670;28;20176;-78
2022/04/11 04:09:54;;;;;;;4.15;1.10;;;31.50;41.60;;;;;;5052689;28;20649;-77
2022/04/11 04:12:22;;;;;;;2.90;0.82;;;31.60;41.70;;;;;;5051797;28;20646;-78
2022/04/11 04:14:50;;;;;;;2.30;0.93;;;31.40;42.00;;;;;;5053134;28;20541;-78
2022/04/11 04:17:17;;;;;;;3.95;0.90;;;31.30;42.40;;;;;;5053064;28;20179;-76
2022/04/11 04:19:44;;;;;;;4.22;1.02;;;31.60;40.90;;;;;;5052074;28;20690;-80
2022/04/11 04:22:12;;;;;;;1.70;1.20;;;31.80;41.10;;;;;;5047327;28;20179;-88
2022/04/11 04:24:40;;;;;;;3.90;0.90;;;31.80;40.90;;;;;;5052975;28;20180;-81
2022/04/11 04:27:08;;;;;;;2.75;0.93;;;31.80;41.10;;;;;;5051797;28;20561;-77
2022/04/11 04:29:36;;;;;;;2.08;0.80;;;32.00;40.20;;;;;;5052411;28;20285;-74
2022/04/11 04:32:04;;;;;;;6.15;1.30;;;31.80;40.50;;;;;;5052464;28;20195;-79
2022/04/11 04:34:31;;;;;;;4.32;0.95;;;31.50;41.00;;;;;;5054689;28;20180;-76
2022/04/11 04:37:00;;;;;;;3.40;1.05;;;31.70;41.10;;;;;;5052161;28;20630;-77
2022/04/11 04:39:27;;;;;;;5.15;1.05;;;31.60;41.20;;;;;;5052638;28;20207;-78
2022/04/11 04:41:55;;;;;;;1.83;1.00;;;31.30;41.20;;;;;;5052217;28;20694;-78
2022/04/11 04:44:22;;;;;;;2.53;1.30;;;31.20;41.00;;;;;;5052350;28;20188;-78
2022/04/11 04:46:49;;;;;;;4.88;1.23;;;31.70;40.30;;;;;;5051416;28;20186;-84
2022/04/11 04:49:17;;;;;;;1.77;1.00;;;31.60;39.60;;;;;;5052632;28;20261;-77
2022/04/11 04:51:44;;;;;;;4.05;1.02;;;31.20;40.50;;;;;;5052499;28;20263;-77
2022/04/11 04:54:11;;;;;;;3.75;1.35;;;30.10;42.80;;;;;;5052132;28;20230;-75
2022/04/11 04:56:39;;;;;;;3.57;1.23;;;29.30;43.80;;;;;;5051700;28;20265;-75
2022/04/11 04:59:06;;;;;;;4.30;1.07;;;28.80;45.90;;;;;;5051179;28;20184;-77
2022/04/11 05:01:33;;;;;;;4.38;1.17;;;29.30;44.90;;;;;;5050700;28;20172;-77
2022/04/11 05:04:01;;;;;;;2.78;1.02;;;28.80;46.40;;;;;;5053477;28;20180;-79
2022/04/11 05:06:28;;;;;;;2.10;1.15;;;29.60;44.90;;;;;;5049684;28;20653;-79
2022/04/11 05:08:56;;;;;;;1.45;0.98;;;29.80;44.40;;;;;;5051619;28;20207;-76
2022/04/11 05:11:24;;;;;;;3.58;0.98;;;29.60;45.00;;;;;;5051807;28;20176;-79
2022/04/11 05:13:52;;;;;;;3.63;1.30;;;29.70;44.90;;;;;;5052203;28;20176;-78
2022/04/11 05:16:19;;;;;;;2.42;1.20;;;29.90;44.90;;;;;;5052164;28;20527;-79
2022/04/11 05:18:47;;;;;;;5.13;0.90;;;30.10;44.70;;;;;;5052408;28;20187;-76
2022/04/11 05:21:14;;;;;;;3.50;1.25;;;29.80;45.80;;;;;;5052226;28;20183;-77
2022/04/11 05:23:41;;;;;;;1.88;0.90;;;29.50;47.00;;;;;;5051010;28;20293;-77
2022/04/11 05:26:09;;;;;;;2.97;1.20;;;29.90;46.90;;;;;;5040282;28;20630;-76
2022/04/11 05:28:36;;;;;;;2.33;1.40;;;29.60;47.50;;;;;;5050873;28;20207;-75
2022/04/11 05:31:04;;;;;;;3.53;1.35;;;29.80;48.40;;;;;;5040975;28;20191;-76
2022/04/11 05:33:31;;;;;;;3.88;1.30;;;29.70;49.30;;;;;;5063964;28;20179;-75
2022/04/11 05:35:58;;;;;;;3.50;1.42;;;30.50;47.10;;;;;;5054124;28;20214;-76
2022/04/11 05:38:26;;;;;;;6.30;1.23;;;30.70;46.80;;;;;;5055802;28;20171;-72
2022/04/11 05:40:53;;;;;;;3.67;1.10;;;31.10;45.10;;;;;;5053751;28;20542;-76
2022/04/11 05:43:20;;;;;;;4.10;0.93;;;30.10;42.70;;;;;;5051947;28;20184;-78
2022/04/11 05:45:48;;;;;;;3.47;1.40;;;29.80;43.10;;;;;;5054930;28;20191;-75
2022/04/11 05:48:15;;;;;;;5.88;1.40;;;29.80;42.80;;;;;;5054564;28;20716;-75
2022/04/11 05:50:42;;;;;;;5.45;1.20;;;29.70;43.90;;;;;;5054612;28;20188;-76
2022/04/11 05:53:10;;;;;;;3.45;1.60;;;28.80;46.60;;;;;;5055757;28;20286;-73
2022/04/11 05:55:37;;;;;;;2.83;1.10;;;29.00;46.80;;;;;;5054002;28;20179;-75
2022/04/11 05:58:05;;;;;;;5.93;1.15;;;28.60;48.30;;;;;;5052713;28;20184;-75
2022/04/11 06:00:32;;;;;;;4.50;1.43;;;28.50;49.70;;;;;;5055308;28;20234;-74
2022/04/11 06:02:59;;;;;;;5.97;1.63;;;28.30;50.40;;;;;;5056100;28;20211;-76
2022/04/11 06:05:27;;;;;;;4.50;1.93;;;28.30;50.40;;;;;;5055373;28;20293;-74
2022/04/11 06:07:54;;;;;;;5.07;1.50;;;28.80;49.70;;;;;;5041247;28;20211;-75
2022/04/11 06:10:22;;;;;;;4.27;1.90;;;29.20;48.50;;;;;;5044916;28;20283;-81
2022/04/11 06:12:50;;;;;;;4.53;1.43;;;29.10;49.50;;;;;;5051000;28;20184;-73
2022/04/11 06:15:18;;;;;;;4.43;1.80;;;29.00;49.60;;;;;;5049611;28;20191;-79
2022/04/11 06:17:45;;;;;;;4.60;1.57;;;29.10;49.80;;;;;;5049283;28;20184;-80
2022/04/11 06:20:13;;;;;;;4.47;1.63;;;28.60;52.10;;;;;;5055073;28;20172;-78
2022/04/11 06:22:41;;;;;;;6.03;2.00;;;28.20;53.40;;;;;;5055285;28;20188;-75
2022/04/11 06:25:09;;;;;;;5.23;2.00;;;28.40;54.00;;;;;;5052281;28;20266;-75
2022/04/11 06:27:37;;;;;;;6.33;1.80;;;28.50;53.70;;;;;;5052491;28;20219;-83
2022/04/11 06:30:08;;;;;;;11.20;1.97;;;27.80;56.60;;;;;;5051968;28;20179;-76
2022/04/11 06:32:36;;;;;;;11.50;1.93;;;27.60;58.50;;;;;;5048152;28;20232;-80
2022/04/11 06:35:03;;;;;;;6.17;2.00;;;27.30;59.50;;;;;;5050494;28;20188;-80
2022/04/11 06:37:31;;;;;;;8.33;2.10;;;27.30;60.10;;;;;;5054302;28;20638;-83
2022/04/11 06:39:58;;;;;;;5.10;1.87;;;27.50;59.50;;;;;;5054360;28;20186;-81
2022/04/11 06:42:25;;;;;;;9.20;1.80;;;26.80;61.50;;;;;;5052553;28;20223;-77
2022/04/11 06:44:52;;;;;;;7.33;2.20;;;27.10;62.00;;;;;;5051070;28;20187;-80
2022/04/11 06:47:21;;;;;;;9.50;2.20;;;26.60;63.20;;;;;;5053205;28;20188;-77
2022/04/11 06:49:49;;;;;;;9.70;2.60;;;25.60;66.60;;;;;;5045755;28;20692;-77
2022/04/11 06:52:16;;;;;;;8.53;1.90;;;25.10;69.70;;;;;;5052230;28;20195;-78
2022/04/11 06:54:45;;;;;;;6.37;2.17;;;24.90;70.20;;;;;;5053384;28;20258;-76
2022/04/11 06:57:12;;;;;;;10.10;2.37;;;24.70;71.00;;;;;;5052639;28;20272;-80
2022/04/11 06:59:40;;;;;;;5.63;2.03;;;24.50;71.90;;;;;;5049107;28;20176;-77
2022/04/11 07:02:07;;;;;;;8.40;2.30;;;24.30;72.10;;;;;;5055288;28;20645;-76
2022/04/11 07:04:35;;;;;;;9.57;2.50;;;24.00;73.40;;;;;;5053763;28;20180;-75
2022/04/11 07:07:02;;;;;;;11.40;2.50;;;23.70;74.10;;;;;;5042948;28;20223;-78
2022/04/11 07:09:31;;;;;;;11.27;2.97;;;23.60;74.50;;;;;;5053383;28;20725;-78
2022/04/11 07:11:59;;;;;;;11.27;2.57;;;23.60;75.10;;;;;;5053094;28;20439;-73
2022/04/11 07:14:27;;;;;;;14.40;2.97;;;23.40;75.70;;;;;;5053853;28;20276;-77
2022/04/11 07:16:54;;;;;;;17.83;3.43;;;23.40;76.10;;;;;;5054029;28;20191;-76
2022/04/11 07:19:21;;;;;;;13.57;2.70;;;23.40;76.40;;;;;;5052878;28;20188;-76
2022/04/11 07:21:49;;;;;;;14.50;3.50;;;23.30;76.30;;;;;;5044809;28;20183;-76
2022/04/11 07:24:17;;;;;;;12.93;3.30;;;23.20;76.80;;;;;;5048767;28;20677;-76
2022/04/11 07:26:44;;;;;;;15.10;3.40;;;23.20;77.40;;;;;;5041223;28;20211;-76
2022/04/11 07:29:11;;;;;;;17.07;3.13;;;23.10;77.70;;;;;;5049387;28;20615;-74
2022/04/11 07:31:39;;;;;;;12.10;3.40;;;23.10;78.20;;;;;;5054118;28;20627;-74
2022/04/11 07:34:06;;;;;;;11.53;3.23;;;23.00;78.90;;;;;;5062714;28;20654;-75
2022/04/11 07:36:33;;;;;;;14.47;3.63;;;22.90;79.20;;;;;;5051198;28;20188;-74
2022/04/11 07:39:01;;;;;;;17.17;4.77;;;22.90;79.40;;;;;;5053592;28;20214;-75
2022/04/11 07:41:28;;;;;;;24.83;7.03;;;22.80;80.10;;;;;;5052977;28;20263;-77
2022/04/11 07:43:58;;;;;;;27.30;7.37;;;22.80;80.60;;;;;;5053063;28;20184;-75
2022/04/11 07:46:25;;;;;;;27.60;8.57;;;22.80;81.00;;;;;;5053300;28;20250;-77
2022/04/11 07:48:53;;;;;;;35.60;8.83;;;22.80;81.10;;;;;;5053510;28;20219;-78
2022/04/11 07:51:20;;;;;;;30.03;9.53;;;22.70;81.40;;;;;;5053230;28;20203;-75
2022/04/11 07:53:47;;;;;;;29.03;8.30;;;22.70;81.60;;;;;;5052592;28;20189;-75
2022/04/11 07:56:15;;;;;;;28.10;9.77;;;22.60;81.60;;;;;;5052941;28;20266;-74
2022/04/11 07:58:42;;;;;;;23.77;8.37;;;22.60;81.70;;;;;;5052741;28;20176;-74
2022/04/11 08:01:16;;;;;;;27.53;8.17;;;22.60;81.60;;;;;;5054005;28;20188;-74
2022/04/11 08:03:44;;;;;;;26.27;8.10;;;22.50;81.30;;;;;;5066430;28;20180;-77
2022/04/11 08:06:12;;;;;;;34.13;8.10;;;22.40;81.00;;;;;;5047657;28;20184;-75
2022/04/11 08:08:44;;;;;;;28.40;9.43;;;22.40;81.20;;;;;;5053749;28;20208;-80
2022/04/11 08:11:16;;;;;;;27.30;8.03;;;22.30;81.20;;;;;;5052329;28;20187;-74
2022/04/11 08:13:43;;;;;;;36.83;8.87;;;22.30;81.10;;;;;;5048099;28;20180;-74
2022/04/11 08:16:11;;;;;;;21.70;7.20;;;22.30;81.10;;;;;;5076913;28;20183;-77
2022/04/11 08:18:39;;;;;;;29.67;7.70;;;22.40;81.00;;;;;;5053162;28;20176;-76
2022/04/11 08:21:07;;;;;;;25.90;7.60;;;22.40;80.70;;;;;;5049749;28;20565;-76
2022/04/11 08:23:34;;;;;;;27.97;7.20;;;22.40;80.70;;;;;;5052279;28;20188;-76
2022/04/11 08:26:01;;;;;;;24.20;6.87;;;22.40;80.80;;;;;;5050262;28;20281;-77
2022/04/11 08:28:32;;;;;;;29.97;7.80;;;22.30;81.20;;;;;;5051225;28;20211;-77
2022/04/11 08:31:02;;;;;;;25.50;7.27;;;22.30;81.20;;;;;;5052416;28;20183;-79
2022/04/11 08:33:32;;;;;;;26.27;7.30;;;22.30;80.80;;;;;;5053750;28;20184;-77
2022/04/11 08:36:00;;;;;;;27.03;7.83;;;22.30;80.90;;;;;;5050915;28;20267;-75
2022/04/11 08:38:27;;;;;;;29.43;7.50;;;22.30;81.20;;;;;;5045800;28;20180;-78
2022/04/11 08:40:55;;;;;;;26.13;6.10;;;22.30;81.30;;;;;;5050145;28;20230;-73
2022/04/11 08:43:27;;;;;;;33.77;6.77;;;22.30;81.30;;;;;;5052681;28;20184;-75
2022/04/11 08:45:55;;;;;;;27.47;6.10;;;22.30;81.20;;;;;;5052151;28;20559;-75
2022/04/11 08:48:22;;;;;;;31.73;7.13;;;22.30;81.20;;;;;;5052195;28;20222;-78
2022/04/11 08:50:50;;;;;;;29.60;6.90;;;22.30;81.10;;;;;;5050351;28;20179;-79
2022/04/11 08:53:22;;;;;;;33.17;7.53;;;22.30;81.20;;;;;;5050592;28;20630;-79
2022/04/11 08:55:52;;;;;;;34.30;7.10;;;22.30;81.50;;;;;;5052336;28;20180;-78
2022/04/11 08:58:20;;;;;;;25.50;6.67;;;22.30;81.50;;;;;;5049051;28;20700;-73
2022/04/11 09:00:47;;;;;;;33.03;7.30;;;22.30;81.50;;;;;;5051766;28;20192;-82
2022/04/11 09:03:15;;;;;;;21.00;5.90;;;22.30;81.30;;;;;;5050322;28;20622;-79
2022/04/11 09:05:42;;;;;;;28.30;5.53;;;22.30;81.00;;;;;;5046795;28;20202;-79
2022/04/11 09:08:10;;;;;;;27.43;5.67;;;22.30;81.00;;;;;;5048761;28;20207;-75
2022/04/11 09:10:37;;;;;;;30.73;6.80;;;22.30;80.90;;;;;;5054642;28;20192;-79
2022/04/11 09:13:07;;;;;;;30.87;6.80;;;22.30;81.00;;;;;;5055809;28;20527;-77
2022/04/11 09:15:43;;;;;;;32.60;6.27;;;22.30;80.90;;;;;;5056035;28;20183;-76
2022/04/11 09:18:10;;;;;;;22.43;5.77;;;22.30;80.80;;;;;;5053672;28;20237;-74
2022/04/11 09:20:42;;;;;;;25.30;5.93;;;22.20;80.40;;;;;;5050608;28;20188;-74
2022/04/11 09:23:27;;;;;;;27.73;6.00;;;22.20;80.40;;;;;;5053213;28;20328;-76
2022/04/11 09:25:54;;;;;;;28.43;6.13;;;22.20;80.40;;;;;;5055444;28;20176;-77
2022/04/11 09:28:22;;;;;;;27.47;5.53;;;22.20;80.40;;;;;;5049977;28;20242;-80
2022/04/11 09:30:50;;;;;;;29.23;5.27;;;22.20;80.30;;;;;;5055118;28;20631;-79
2022/04/11 09:33:18;;;;;;;25.87;5.23;;;22.20;80.40;;;;;;5054249;28;20186;-79
2022/04/11 09:35:49;;;;;;;23.13;5.47;;;22.20;80.50;;;;;;5053798;28;20180;-76
2022/04/11 09:38:20;;;;;;;25.90;6.10;;;22.20;80.70;;;;;;5052969;28;20199;-78
2022/04/11 09:40:56;;;;;;;21.87;6.10;;;22.10;80.30;;;;;;5050279;28;20567;-74
2022/04/11 09:43:31;;;;;;;24.83;5.10;;;22.10;80.00;;;;;;5046961;28;20191;-74
2022/04/11 09:46:01;;;;;;;24.47;5.53;;;22.00;80.20;;;;;;5053794;28;20270;-76
2022/04/11 09:48:38;;;;;;;25.07;5.57;;;22.00;80.50;;;;;;5045935;28;20192;-74
2022/04/11 09:51:15;;;;;;;26.77;5.17;;;22.00;80.90;;;;;;5054032;28;20550;-77
2022/04/11 09:53:43;;;;;;;25.23;6.03;;;21.90;81.20;;;;;;5053671;28;20585;-76
2022/04/11 09:56:11;;;;;;;21.60;5.00;;;21.80;81.50;;;;;;5039435;28;20276;-77
2022/04/11 09:58:40;;;;;;;21.93;5.33;;;21.70;83.10;;;;;;5034963;28;20234;-76
2022/04/11 10:01:09;;;;;;;23.27;5.70;;;21.50;84.10;;;;;;5053936;28;20665;-79
2022/04/11 10:03:37;;;;;;;31.67;6.40;;;21.40;85.00;;;;;;5071997;28;20206;-78
2022/04/11 10:06:05;;;;;;;24.57;7.40;;;21.30;85.70;;;;;;5057730;28;20186;-78
2022/04/11 10:08:33;;;;;;;22.67;5.80;;;21.30;85.90;;;;;;5040473;28;20200;-76
2022/04/11 10:11:04;;;;;;;26.57;6.10;;;21.20;86.30;;;;;;5052421;28;20214;-81
2022/04/11 10:13:34;;;;;;;27.80;6.57;;;21.20;86.70;;;;;;5055341;28;20179;-78
2022/04/11 10:16:02;;;;;;;25.10;6.73;;;21.20;86.70;;;;;;5053096;28;20194;-79
2022/04/11 10:18:33;;;;;;;32.70;6.53;;;21.30;86.90;;;;;;5049746;28;20184;-77
2022/04/11 10:21:10;;;;;;;27.77;6.53;;;21.30;86.90;;;;;;5051868;28;20176;-78
2022/04/11 10:23:47;;;;;;;32.80;6.60;;;21.30;86.90;;;;;;5053448;28;20188;-78
2022/04/11 10:26:19;;;;;;;31.30;6.60;;;21.30;86.50;;;;;;5053925;28;20520;-77
2022/04/11 10:28:51;;;;;;;28.60;7.30;;;21.30;86.40;;;;;;5054316;28;20204;-74
2022/04/11 10:31:19;;;;;;;30.33;6.87;;;21.30;86.70;;;;;;5056142;28;20196;-76
2022/04/11 10:33:47;;;;;;;34.90;7.57;;;21.30;86.70;;;;;;5074049;28;20191;-77
2022/04/11 10:36:32;;;;;;;29.27;6.70;;;21.30;86.70;;;;;;5058206;28;20177;-77
2022/04/11 10:39:18;;;;;;;36.97;7.53;;;21.40;86.70;;;;;;5048885;28;20545;-78
2022/04/11 10:41:57;;;;;;;27.23;6.23;;;21.30;86.60;;;;;;5050400;28;20224;-76
2022/04/11 10:44:35;;;;;;;27.20;6.07;;;21.40;87.00;;;;;;5053013;28;20515;-77
2022/04/11 10:47:11;;;;;;;28.37;6.43;;;21.40;87.00;;;;;;5055705;28;20279;-77
2022/04/11 10:49:51;;;;;;;32.50;7.27;;;21.50;86.90;;;;;;5052823;28;20215;-79
2022/04/11 10:52:36;;;;;;;37.40;6.47;;;21.40;86.90;;;;;;5038221;28;20354;-75
2022/04/11 10:55:15;;;;;;;34.00;6.60;;;21.40;87.00;;;;;;5034788;28;20177;-77
2022/04/11 10:57:44;;;;;;;38.10;7.10;;;21.30;87.10;;;;;;5043892;28;20179;-78
2022/04/11 11:00:20;;;;;;;36.73;6.50;;;21.30;87.00;;;;;;5052062;28;20263;-80
2022/04/11 11:05:43;;;;;;;40.23;7.33;;;21.30;87.00;;;;;;5056136;28;20200;-77
2022/04/11 11:08:11;;;;;;;30.17;6.33;;;21.20;86.80;;;;;;5053688;28;20696;-77
2022/04/11 11:10:49;;;;;;;30.63;6.10;;;21.30;86.90;;;;;;5043280;28;20196;-77
2022/04/11 11:13:39;;;;;;;34.20;7.10;;;21.30;86.60;;;;;;5034292;28;20591;-76
2022/04/11 11:16:14;;;;;;;28.27;5.83;;;21.30;86.40;;;;;;5037841;28;20198;-78
2022/04/11 11:18:51;;;;;;;32.53;5.80;;;21.30;85.80;;;;;;5053131;28;20171;-78
2022/04/11 11:21:37;;;;;;;32.87;6.17;;;21.30;85.90;;;;;;5054159;28;20174;-76
2022/04/11 11:24:04;;;;;;;25.17;6.47;;;21.30;86.00;;;;;;5052951;28;20642;-77
2022/04/11 11:26:57;;;;;;;35.90;6.33;;;21.30;85.80;;;;;;5053376;28;20172;-77
2022/04/11 11:29:29;;;;;;;32.10;7.00;;;21.30;86.00;;;;;;5045491;28;20204;-76
2022/04/11 11:32:02;;;;;;;25.07;5.17;;;21.30;85.90;;;;;;5050336;28;20224;-75
2022/04/11 11:34:31;;;;;;;25.73;5.43;;;21.30;85.90;;;;;;5050728;28;20188;-76
2022/04/11 11:37:04;;;;;;;27.90;5.17;;;21.20;85.90;;;;;;5053978;28;20199;-77
2022/04/11 11:39:33;;;;;;;28.97;5.57;;;21.20;86.00;;;;;;5053980;28;20168;-77
2022/04/11 11:42:04;;;;;;;30.63;6.10;;;21.20;86.30;;;;;;5052217;28;20220;-75
2022/04/11 11:44:32;;;;;;;25.73;5.63;;;21.20;86.30;;;;;;5052267;28;20180;-78
2022/04/11 11:47:02;;;;;;;24.47;5.00;;;21.10;86.80;;;;;;5034981;28;20173;-78
2022/04/11 11:49:39;;;;;;;35.70;5.80;;;21.20;86.80;;;;;;5035233;28;20212;-80
2022/04/11 11:52:17;;;;;;;25.77;5.67;;;21.10;86.70;;;;;;5052637;28;20229;-77
2022/04/11 11:54:46;;;;;;;26.90;4.67;;;21.00;86.00;;;;;;5052362;28;20183;-78
2022/04/11 11:57:18;;;;;;;19.07;4.63;;;21.00;86.00;;;;;;5057726;28;20168;-80
2022/04/11 12:00:01;;;;;;;22.60;5.60;;;20.90;85.60;;;;;;5055291;28;20172;-81
2022/04/11 12:05:25;;;;;;;25.47;5.53;;;20.90;86.30;;;;;;5038697;28;20183;-80
2022/04/11 12:08:07;;;;;;;34.03;5.37;;;20.80;86.60;;;;;;5048688;28;20211;-78
2022/04/11 12:10:35;;;;;;;27.83;6.53;;;20.80;87.10;;;;;;5053172;28;20275;-84
2022/04/11 12:13:02;;;;;;;21.67;5.43;;;20.80;87.30;;;;;;5052941;28;20188;-79
2022/04/11 12:15:34;;;;;;;28.33;5.30;;;20.70;86.80;;;;;;5052860;28;20180;-81
2022/04/11 12:18:09;;;;;;;28.73;4.80;;;20.60;86.70;;;;;;5053079;28;20703;-79
2022/04/11 12:20:37;;;;;;;24.33;4.80;;;20.60;86.60;;;;;;5052184;28;20175;-82
2022/04/11 12:23:10;;;;;;;26.20;5.70;;;20.60;86.80;;;;;;5053418;28;20171;-76
2022/04/11 12:25:57;;;;;;;22.90;6.97;;;20.60;86.90;;;;;;5052254;28;20225;-78
2022/04/11 12:28:29;;;;;;;24.87;5.73;;;20.60;86.80;;;;;;5052936;28;20200;-77
2022/04/11 12:31:06;;;;;;;25.67;5.50;;;20.60;86.70;;;;;;5053170;28;20642;-78
2022/04/11 12:33:37;;;;;;;24.03;5.60;;;20.70;87.00;;;;;;5069791;28;20641;-77
2022/04/11 12:36:12;;;;;;;34.10;5.73;;;20.60;86.90;;;;;;5072520;28;20653;-78
2022/04/11 12:38:43;;;;;;;28.40;5.87;;;20.60;86.80;;;;;;5061109;28;20638;-78
2022/04/11 12:41:31;;;;;;;25.70;6.13;;;20.50;86.20;;;;;;5052340;28;20219;-77
2022/04/11 12:44:02;;;;;;;28.87;5.03;;;20.60;86.20;;;;;;5050161;28;20168;-77
2022/04/11 12:46:31;;;;;;;29.97;5.77;;;20.60;86.30;;;;;;5049384;28;20222;-80
2022/04/11 12:48:59;;;;;;;23.63;5.40;;;20.60;86.00;;;;;;5052813;28;20610;-78
2022/04/11 12:51:30;;;;;;;27.33;5.63;;;20.60;86.40;;;;;;5052714;28;20179;-78
2022/04/11 12:54:16;;;;;;;17.80;4.57;;;20.60;86.00;;;;;;5051493;28;20176;-79
2022/04/11 12:56:46;;;;;;;27.43;5.93;;;20.70;85.20;;;;;;5050454;28;20176;-75
2022/04/11 12:59:28;;;;;;;25.67;5.60;;;20.70;84.70;;;;;;5052121;28;20192;-77